Terminal Aerodrome Forecast
Issued by NWS Omaha/Valley, NE

Home | Current Version | Previous Version | Text Only | Print | Product List | Glossary Off
Versions: 1 2 3 4 5 6 7 8 9 10 11 12 13 14 15 16 17 18 19

000
FTUS43 KOAX 241603 AAA
TAFOFK
TAF AMD
KOFK 241603Z 2416/2512 14005KT P6SM BKN250
     FM241900 12007KT P6SM SCT035 SCT250
     FM250200 13010KT P6SM OVC100 PROB30 2502/2504 4SM -TSRA
      OVC040CB
     FM250400 14010KT P6SM -SHRA VCTS BKN090CB=

USA.gov is the U.S. government's official web portal to all federal, state and local government web resources and services.